Time;durP1;ratioP1;P1;durP2;ratioP2;P2;SDS_P1;SDS_P2;PMS_P1;PMS_P2;Temp;Humidity;BMP_temperature;BMP_pressure;BME280_temperature;BME280_humidity;BME280_pressure;Samples;Min_cycle;Max_cycle;Signal;HPM_P1;HPM_P2
2023/06/12 00:01:39;;;;;;;8.27;3.83;;;15.60;70.70;;;;;;4868937;29;20083;-90
2023/06/12 00:04:07;;;;;;;11.13;4.22;;;15.60;71.00;;;;;;4869080;29;20067;-90
2023/06/12 00:06:38;;;;;;;9.98;4.80;;;15.50;71.30;;;;;;4869069;29;20053;-90
2023/06/12 00:09:05;;;;;;;7.82;4.47;;;15.50;71.30;;;;;;4868811;29;20041;-90
2023/06/12 00:11:33;;;;;;;8.88;4.38;;;15.50;71.60;;;;;;4884314;29;20460;-90
2023/06/12 00:14:00;;;;;;;10.37;4.80;;;15.40;72.00;;;;;;4884185;29;20139;-90
2023/06/12 00:16:28;;;;;;;11.05;4.45;;;15.30;72.20;;;;;;4869279;29;20048;-90
2023/06/12 00:18:56;;;;;;;9.13;4.18;;;15.20;72.30;;;;;;4866287;29;20526;-90
2023/06/12 00:21:23;;;;;;;8.38;4.07;;;15.20;72.50;;;;;;4868851;29;20052;-90
2023/06/12 00:23:50;;;;;;;8.88;4.50;;;15.20;72.50;;;;;;4868734;29;20045;-90
2023/06/12 00:26:17;;;;;;;8.00;4.43;;;15.20;72.90;;;;;;4883912;29;20495;-90
2023/06/12 00:28:45;;;;;;;9.07;4.88;;;15.10;72.70;;;;;;4868400;29;20053;-90
2023/06/12 00:31:12;;;;;;;8.13;4.72;;;15.20;72.60;;;;;;4868231;29;20045;-90
2023/06/12 00:33:41;;;;;;;8.35;4.82;;;15.10;72.70;;;;;;4883772;29;20135;-90
2023/06/12 00:36:08;;;;;;;9.68;4.82;;;15.10;72.80;;;;;;4868211;29;20517;-90
2023/06/12 00:38:35;;;;;;;11.63;4.87;;;15.10;72.80;;;;;;4868871;29;20048;-89
2023/06/12 00:41:02;;;;;;;9.23;4.43;;;15.00;72.90;;;;;;4883420;29;20537;-90
2023/06/12 00:43:29;;;;;;;9.48;5.38;;;15.00;72.90;;;;;;4875645;29;20489;-90
2023/06/12 00:45:57;;;;;;;8.73;4.30;;;15.00;72.80;;;;;;4868140;29;20072;-90
2023/06/12 00:48:24;;;;;;;9.80;4.75;;;15.00;72.90;;;;;;4867812;29;20052;-89
2023/06/12 00:50:52;;;;;;;9.37;4.70;;;15.00;73.00;;;;;;4883050;29;20511;-89
2023/06/12 00:53:20;;;;;;;10.32;4.90;;;14.90;73.10;;;;;;4868175;29;20487;-90
2023/06/12 00:55:47;;;;;;;11.13;4.78;;;14.90;73.20;;;;;;4867508;29;20045;-88
2023/06/12 00:58:14;;;;;;;10.38;5.10;;;14.90;73.20;;;;;;4875664;29;20485;-90
2023/06/12 01:00:41;;;;;;;10.32;5.05;;;14.80;73.20;;;;;;4868409;29;20487;-90
2023/06/12 01:03:12;;;;;;;10.90;4.93;;;14.80;73.20;;;;;;4867997;29;20455;-89
2023/06/12 01:05:45;;;;;;;10.65;4.88;;;14.80;73.30;;;;;;4882999;29;20124;-90
2023/06/12 01:08:17;;;;;;;11.00;5.13;;;14.80;73.40;;;;;;4867350;29;20163;-89
2023/06/12 01:11:04;;;;;;;9.30;4.90;;;14.70;73.50;;;;;;4867987;29;20080;-90
2023/06/12 01:13:33;;;;;;;8.07;4.72;;;14.60;74.10;;;;;;4867331;29;20049;-90
2023/06/12 01:16:01;;;;;;;11.17;4.90;;;14.50;74.50;;;;;;4867347;29;20059;-90
2023/06/12 01:18:29;;;;;;;8.98;4.10;;;14.50;74.50;;;;;;4867417;29;20451;-90
2023/06/12 01:20:58;;;;;;;10.68;5.45;;;14.50;74.60;;;;;;4867284;29;20043;-90
2023/06/12 01:24:01;;;;;;;10.13;5.00;;;14.50;74.50;;;;;;4882559;29;20044;-89
2023/06/12 01:26:52;;;;;;;8.75;4.53;;;14.50;74.40;;;;;;4881750;29;20487;-90
2023/06/12 01:29:48;;;;;;;12.43;4.53;;;14.50;74.30;;;;;;4864160;29;20084;-89
2023/06/12 01:32:16;;;;;;;9.02;3.83;;;14.50;74.10;;;;;;4867150;29;20128;-89
2023/06/12 01:35:03;;;;;;;10.05;4.60;;;14.50;73.70;;;;;;4882340;29;20743;-90
2023/06/12 01:37:44;;;;;;;8.68;4.25;;;14.40;74.10;;;;;;4882111;29;20517;-90
2023/06/12 01:40:21;;;;;;;10.15;4.45;;;14.30;74.20;;;;;;4883075;29;20052;-90
2023/06/12 01:42:51;;;;;;;9.27;4.83;;;14.20;74.50;;;;;;4868686;29;20041;-90
2023/06/12 01:45:19;;;;;;;8.60;4.63;;;14.10;74.90;;;;;;4867394;29;20131;-90
2023/06/12 01:47:46;;;;;;;9.80;4.93;;;14.10;74.90;;;;;;4867114;29;20056;-90
2023/06/12 01:50:13;;;;;;;9.05;4.50;;;14.10;75.00;;;;;;4867003;29;20492;-90
2023/06/12 01:52:41;;;;;;;9.68;4.88;;;14.10;75.00;;;;;;4867170;29;20574;-90
2023/06/12 01:55:09;;;;;;;8.83;4.80;;;14.10;74.80;;;;;;4867040;29;20041;-90
2023/06/12 01:57:38;;;;;;;9.85;5.20;;;14.10;74.70;;;;;;4867274;29;20046;-90
2023/06/12 02:00:10;;;;;;;9.55;4.85;;;14.00;75.20;;;;;;4868973;29;20044;-90
2023/06/12 02:03:11;;;;;;;8.40;4.30;;;13.90;75.40;;;;;;5324176;23;20128;-90
2023/06/12 02:05:38;;;;;;;10.40;4.68;;;13.90;75.60;;;;;;4890238;29;20072;-91
2023/06/12 02:08:07;;;;;;;9.63;5.20;;;13.90;75.50;;;;;;4893032;29;20043;-90
2023/06/12 02:10:34;;;;;;;9.77;4.40;;;14.00;75.00;;;;;;4869252;29;20045;-90
2023/06/12 02:13:02;;;;;;;9.77;4.75;;;14.00;74.90;;;;;;4871670;29;20056;-90
2023/06/12 02:15:29;;;;;;;10.07;4.70;;;14.00;74.60;;;;;;4886272;29;20487;-90
2023/06/12 02:17:56;;;;;;;11.00;4.60;;;14.00;74.70;;;;;;4884569;29;20096;-89
2023/06/12 02:20:23;;;;;;;9.67;4.97;;;13.90;74.80;;;;;;4885505;29;20144;-90
2023/06/12 02:22:53;;;;;;;9.52;4.47;;;13.90;75.10;;;;;;4885497;29;20057;-90
2023/06/12 02:25:20;;;;;;;10.32;5.32;;;13.80;75.00;;;;;;4885764;29;20052;-89
2023/06/12 02:27:48;;;;;;;10.73;4.88;;;13.80;75.20;;;;;;4870438;29;20127;-90
2023/06/12 02:30:17;;;;;;;10.10;4.70;;;13.70;75.60;;;;;;4886434;29;20037;-89
2023/06/12 02:32:44;;;;;;;10.83;4.77;;;13.70;75.70;;;;;;4884757;29;20139;-89
2023/06/12 02:35:12;;;;;;;9.40;4.82;;;13.70;75.80;;;;;;4886176;29;20037;-90
2023/06/12 02:37:40;;;;;;;8.95;4.55;;;13.60;76.00;;;;;;4870969;29;20529;-90
2023/06/12 02:40:08;;;;;;;10.45;4.60;;;13.50;76.20;;;;;;4885636;29;20056;-90
2023/06/12 02:42:35;;;;;;;9.60;5.00;;;13.50;76.40;;;;;;4870566;29;20045;-90
2023/06/12 02:45:03;;;;;;;13.40;6.40;;;13.50;76.60;;;;;;4874325;29;20044;-90
2023/06/12 02:47:30;;;;;;;9.90;4.40;;;13.50;76.60;;;;;;4895445;29;20048;-90
2023/06/12 02:49:57;;;;;;;12.15;5.18;;;13.50;76.70;;;;;;4875580;29;20052;-90
2023/06/12 02:52:32;;;;;;;12.68;5.10;;;13.40;77.10;;;;;;4885430;29;20044;-90
2023/06/12 02:54:59;;;;;;;8.85;4.75;;;13.30;77.20;;;;;;4888375;29;20131;-90
2023/06/12 02:57:26;;;;;;;9.20;4.70;;;13.30;77.20;;;;;;4875628;29;20052;-89
2023/06/12 02:59:55;;;;;;;10.27;4.80;;;13.30;77.50;;;;;;4885430;29;20055;-90
2023/06/12 03:02:29;;;;;;;9.40;4.72;;;13.30;77.40;;;;;;4885888;29;20131;-90
2023/06/12 03:04:59;;;;;;;9.23;5.18;;;13.20;77.70;;;;;;4885153;29;20081;-89
2023/06/12 03:07:28;;;;;;;10.38;5.25;;;13.20;77.80;;;;;;4885513;29;20511;-90
2023/06/12 03:09:55;;;;;;;9.80;5.00;;;13.20;77.80;;;;;;4870315;29;20082;-90
2023/06/12 03:12:23;;;;;;;10.10;5.20;;;13.20;77.90;;;;;;4884849;29;20069;-89
2023/06/12 03:14:53;;;;;;;9.52;5.35;;;13.20;77.90;;;;;;4867865;29;20051;-89
2023/06/12 03:17:20;;;;;;;10.10;5.07;;;13.30;77.70;;;;;;4884819;29;20045;-89
2023/06/12 03:19:48;;;;;;;9.63;5.13;;;13.30;77.80;;;;;;4881445;29;20571;-89
2023/06/12 03:22:15;;;;;;;11.10;5.23;;;13.30;77.70;;;;;;4876560;29;20487;-89
2023/06/12 03:24:43;;;;;;;10.85;5.68;;;13.30;77.90;;;;;;4868993;29;20044;-90
2023/06/12 03:27:11;;;;;;;11.07;5.40;;;13.20;78.00;;;;;;4884331;29;20104;-89
2023/06/12 03:29:38;;;;;;;11.38;5.18;;;13.20;78.30;;;;;;4878983;29;20517;-89
2023/06/12 03:32:06;;;;;;;12.05;5.65;;;13.10;78.50;;;;;;4884412;29;20490;-89
2023/06/12 03:34:39;;;;;;;11.03;5.27;;;13.10;78.70;;;;;;4869696;29;20108;-90
2023/06/12 03:37:07;;;;;;;10.77;5.20;;;13.10;78.70;;;;;;4866609;29;20049;-89
2023/06/12 03:39:35;;;;;;;11.20;5.53;;;13.10;78.80;;;;;;4883579;29;20057;-89
2023/06/12 03:42:02;;;;;;;9.30;5.07;;;13.20;78.60;;;;;;4866789;29;20470;-90
2023/06/12 03:44:44;;;;;;;9.60;5.35;;;13.20;78.60;;;;;;4890552;29;20049;-89
2023/06/12 03:47:12;;;;;;;11.80;5.50;;;13.30;78.50;;;;;;4884583;29;20079;-90
2023/06/12 03:49:40;;;;;;;10.48;5.60;;;13.30;78.50;;;;;;4883916;29;20052;-89
2023/06/12 03:52:09;;;;;;;9.30;5.15;;;13.30;78.60;;;;;;4884441;29;20040;-89
2023/06/12 03:54:37;;;;;;;9.93;5.20;;;13.40;78.60;;;;;;4868991;29;20048;-89
2023/06/12 03:57:05;;;;;;;11.15;5.30;;;13.50;78.40;;;;;;4872458;29;20096;-90
2023/06/12 03:59:32;;;;;;;9.70;4.90;;;13.60;78.10;;;;;;4884298;29;20048;-89
2023/06/12 04:01:59;;;;;;;10.50;4.63;;;13.80;77.60;;;;;;4868644;29;20451;-90
2023/06/12 04:04:26;;;;;;;11.38;5.40;;;13.80;77.40;;;;;;4865957;29;20052;-89
2023/06/12 04:06:54;;;;;;;11.30;5.10;;;13.80;77.50;;;;;;4885207;29;20447;-89
2023/06/12 04:09:22;;;;;;;8.70;4.35;;;13.80;77.70;;;;;;4888383;29;20055;-89
2023/06/12 04:11:50;;;;;;;9.20;4.73;;;13.80;77.80;;;;;;4868634;29;20085;-89
2023/06/12 04:14:17;;;;;;;10.05;5.50;;;13.90;77.70;;;;;;4868252;29;20143;-89
2023/06/12 04:16:44;;;;;;;10.32;5.22;;;14.00;77.40;;;;;;4875438;29;20049;-89
2023/06/12 04:19:12;;;;;;;12.77;4.97;;;14.00;77.20;;;;;;4880517;29;20513;-89
2023/06/12 04:21:39;;;;;;;10.75;5.32;;;14.00;76.90;;;;;;4865280;29;20051;-89
2023/06/12 04:24:15;;;;;;;9.00;4.60;;;14.10;77.00;;;;;;4868216;29;20494;-89
2023/06/12 04:26:46;;;;;;;10.70;4.78;;;14.30;76.60;;;;;;4869796;29;20041;-90
2023/06/12 04:29:14;;;;;;;10.73;5.15;;;14.50;75.80;;;;;;4889059;29;20440;-89
2023/06/12 04:31:42;;;;;;;9.23;5.45;;;14.60;75.60;;;;;;4884028;29;20041;-90
2023/06/12 04:34:09;;;;;;;10.77;4.60;;;14.60;74.90;;;;;;4882983;29;20040;-90
2023/06/12 04:36:37;;;;;;;7.80;4.10;;;14.80;75.00;;;;;;4886535;29;20095;-90
2023/06/12 04:39:10;;;;;;;8.82;3.90;;;14.90;73.80;;;;;;4869847;29;20037;-90
2023/06/12 04:41:40;;;;;;;8.45;3.42;;;15.00;74.10;;;;;;4882849;29;20040;-90
2023/06/12 04:44:08;;;;;;;8.48;3.25;;;15.30;72.10;;;;;;4881235;29;20054;-90
2023/06/12 04:46:39;;;;;;;9.27;3.25;;;15.40;70.80;;;;;;4867654;29;20041;-90
2023/06/12 04:49:06;;;;;;;5.93;2.87;;;15.50;69.90;;;;;;4883487;29;20567;-92
2023/06/12 04:51:35;;;;;;;5.97;2.65;;;15.60;68.70;;;;;;4868376;29;20048;-91
2023/06/12 04:54:04;;;;;;;9.90;3.08;;;15.80;66.50;;;;;;4882008;29;20036;-88
2023/06/12 04:56:33;;;;;;;8.05;2.58;;;15.90;66.20;;;;;;4882176;29;20075;-89
2023/06/12 04:59:01;;;;;;;7.28;2.72;;;15.90;65.10;;;;;;4882918;29;20079;-90
2023/06/12 05:01:30;;;;;;;9.80;2.90;;;16.00;65.50;;;;;;4867965;29;20411;-91
2023/06/12 05:03:57;;;;;;;7.18;2.42;;;16.10;65.30;;;;;;4879811;29;20053;-88
2023/06/12 05:06:28;;;;;;;7.40;2.83;;;16.20;64.30;;;;;;4881317;29;20051;-88
2023/06/12 05:08:56;;;;;;;6.05;2.65;;;16.30;65.00;;;;;;4883380;29;20124;-88
2023/06/12 05:11:23;;;;;;;5.85;2.65;;;16.40;64.60;;;;;;4881746;29;20096;-89
2023/06/12 05:13:50;;;;;;;5.90;2.63;;;16.60;64.80;;;;;;4867013;29;20123;-88
2023/06/12 05:16:17;;;;;;;8.05;2.60;;;16.80;63.90;;;;;;4867589;29;20491;-88
2023/06/12 05:18:45;;;;;;;6.90;2.05;;;16.90;64.40;;;;;;4883394;29;20559;-88
2023/06/12 05:21:14;;;;;;;5.72;2.00;;;17.00;62.80;;;;;;4881560;29;20055;-88
2023/06/12 05:23:42;;;;;;;6.50;1.83;;;17.00;60.20;;;;;;4866067;29;20049;-88
2023/06/12 05:26:11;;;;;;;6.57;2.07;;;17.00;59.60;;;;;;4868435;29;20063;-88
2023/06/12 05:28:38;;;;;;;6.68;1.90;;;17.10;58.60;;;;;;4865374;29;20052;-87
2023/06/12 05:31:05;;;;;;;10.05;2.08;;;17.10;58.60;;;;;;4880853;29;20046;-88
2023/06/12 05:33:33;;;;;;;4.38;1.73;;;17.10;58.00;;;;;;4881484;29;20048;-89
2023/06/12 05:36:00;;;;;;;7.18;2.17;;;17.20;57.20;;;;;;4882859;29;20055;-89
2023/06/12 05:38:27;;;;;;;5.27;1.70;;;17.10;57.60;;;;;;4887336;29;20135;-88
2023/06/12 05:40:55;;;;;;;8.70;1.60;;;17.30;57.40;;;;;;4884886;29;20082;-90
2023/06/12 05:43:22;;;;;;;4.90;1.65;;;17.30;56.30;;;;;;4882320;29;20053;-91
2023/06/12 05:45:49;;;;;;;6.28;1.60;;;17.50;56.60;;;;;;4867871;29;20143;-91
2023/06/12 05:48:18;;;;;;;7.35;1.85;;;17.50;55.70;;;;;;4867779;29;20088;-92
2023/06/12 05:50:46;;;;;;;5.03;1.63;;;17.60;55.50;;;;;;4883474;29;20506;-92
2023/06/12 05:53:13;;;;;;;4.72;1.77;;;17.70;56.00;;;;;;4882965;29;20083;-92
2023/06/12 05:55:40;;;;;;;6.15;1.65;;;17.80;55.30;;;;;;4868171;29;20498;-93
2023/06/12 05:58:07;;;;;;;6.97;1.50;;;17.80;53.20;;;;;;4883520;29;20410;-93
2023/06/12 06:00:35;;;;;;;5.55;1.52;;;17.70;53.10;;;;;;4868301;29;20561;-92
2023/06/12 06:03:08;;;;;;;5.17;1.80;;;17.70;54.50;;;;;;4868695;29;20080;-93
2023/06/12 06:05:35;;;;;;;6.93;1.90;;;17.90;54.30;;;;;;4883178;29;20067;-92
2023/06/12 06:08:08;;;;;;;6.78;2.75;;;18.00;55.20;;;;;;4868500;29;20052;-93
2023/06/12 06:10:40;;;;;;;11.45;3.10;;;18.10;58.20;;;;;;4883122;29;20443;-93
2023/06/12 06:13:08;;;;;;;10.60;3.47;;;18.30;59.70;;;;;;4867975;29;20044;-93
2023/06/12 06:15:35;;;;;;;7.40;3.10;;;18.10;59.50;;;;;;4882787;29;20060;-93
2023/06/12 06:18:04;;;;;;;8.40;3.20;;;18.10;60.20;;;;;;4883148;29;20068;-93
2023/06/12 06:20:33;;;;;;;9.98;3.10;;;18.00;61.70;;;;;;4867984;29;20148;-92
2023/06/12 06:23:00;;;;;;;7.68;2.78;;;18.10;61.40;;;;;;4882958;29;20072;-92
2023/06/12 06:25:31;;;;;;;7.93;3.00;;;18.00;62.10;;;;;;4882958;29;20063;-92
2023/06/12 06:27:59;;;;;;;7.27;2.70;;;17.90;61.30;;;;;;4882850;29;20079;-92
2023/06/12 06:30:26;;;;;;;10.40;2.72;;;17.90;61.30;;;;;;4867246;29;20121;-92
2023/06/12 06:32:53;;;;;;;6.00;2.67;;;17.90;60.90;;;;;;4882787;29;20066;-92
2023/06/12 06:35:23;;;;;;;8.13;2.60;;;17.60;61.30;;;;;;4883383;29;20128;-93
2023/06/12 06:37:51;;;;;;;6.70;2.53;;;17.60;61.00;;;;;;4883276;29;20459;-92
2023/06/12 06:40:18;;;;;;;8.87;2.87;;;17.50;61.20;;;;;;4883193;29;20510;-93
2023/06/12 06:42:45;;;;;;;7.53;3.20;;;17.40;62.00;;;;;;4883214;29;20053;-92
2023/06/12 06:45:20;;;;;;;12.45;2.83;;;17.40;62.30;;;;;;4884063;29;20049;-93
2023/06/12 06:47:49;;;;;;;6.85;2.80;;;17.40;63.10;;;;;;4886298;29;20108;-93
2023/06/12 06:50:18;;;;;;;7.10;2.85;;;17.50;63.30;;;;;;4886341;29;20055;-93
2023/06/12 06:52:46;;;;;;;8.37;2.90;;;17.70;63.00;;;;;;4887045;29;20096;-93
2023/06/12 06:55:17;;;;;;;7.38;2.35;;;18.00;62.50;;;;;;4871299;29;20128;-94
2023/06/12 06:57:45;;;;;;;6.93;1.98;;;18.30;61.00;;;;;;4886188;29;20056;-92
2023/06/12 07:00:13;;;;;;;4.80;1.70;;;18.50;58.10;;;;;;4885983;29;20064;-92
2023/06/12 07:02:43;;;;;;;5.07;2.00;;;18.70;53.60;;;;;;4871220;29;20555;-92
2023/06/12 07:05:13;;;;;;;5.70;1.60;;;18.70;51.90;;;;;;4885936;29;20120;-89
2023/06/12 07:07:42;;;;;;;10.77;1.65;;;18.50;50.60;;;;;;4866673;29;20065;-88
2023/06/12 07:10:27;;;;;;;6.07;1.60;;;18.50;52.90;;;;;;4882237;29;20135;-87
2023/06/12 07:12:58;;;;;;;6.80;1.75;;;18.10;50.40;;;;;;4884877;29;20127;-90
2023/06/12 07:15:32;;;;;;;5.03;1.73;;;18.00;50.50;;;;;;4885578;29;20045;-89
2023/06/12 07:34:38;;;;;;;6.60;1.50;;;18.50;49.90;;;;;;5105115;23;20412;-94
2023/06/12 07:37:07;;;;;;;6.93;1.88;;;18.20;50.20;;;;;;4835510;29;20145;-96
2023/06/12 07:39:35;;;;;;;5.20;1.45;;;18.00;48.80;;;;;;4834044;29;20059;-95
2023/06/12 07:42:06;;;;;;;5.35;1.30;;;17.90;49.00;;;;;;4833420;29;20401;-95
2023/06/12 07:44:35;;;;;;;9.23;1.20;;;18.00;48.80;;;;;;4848334;29;20511;-95
2023/06/12 07:47:06;;;;;;;5.90;1.50;;;17.90;49.10;;;;;;4863586;29;20045;-96
2023/06/12 07:49:38;;;;;;;5.43;1.65;;;17.80;49.70;;;;;;4848928;29;20046;-95
2023/06/12 07:52:06;;;;;;;4.85;1.40;;;17.90;50.50;;;;;;4849580;29;20053;-95
2023/06/12 07:54:33;;;;;;;4.88;1.38;;;18.30;50.30;;;;;;4848017;29;20051;-95
2023/06/12 07:57:01;;;;;;;6.45;1.70;;;18.50;49.20;;;;;;4848057;29;20046;-95
2023/06/12 07:59:31;;;;;;;4.57;2.10;;;18.40;49.80;;;;;;4849135;29;20078;-94
2023/06/12 08:02:00;;;;;;;7.68;1.40;;;18.20;50.10;;;;;;4863699;29;20056;-96
2023/06/12 08:04:29;;;;;;;5.75;1.67;;;18.20;50.30;;;;;;4863460;29;20060;-95
2023/06/12 08:06:57;;;;;;;4.60;1.40;;;18.60;51.90;;;;;;4848902;29;20504;-95
2023/06/12 08:09:28;;;;;;;7.20;1.92;;;18.70;49.30;;;;;;4848077;29;20064;-94
2023/06/12 08:11:55;;;;;;;6.10;1.40;;;18.60;49.60;;;;;;4848371;29;20042;-95
2023/06/12 08:14:23;;;;;;;6.50;1.40;;;18.50;47.80;;;;;;4848010;29;20046;-94
2023/06/12 08:16:52;;;;;;;7.25;1.73;;;18.40;50.10;;;;;;4847981;29;20046;-95
2023/06/12 08:19:19;;;;;;;6.93;1.42;;;18.50;50.40;;;;;;4847569;29;20049;-95
2023/06/12 08:21:47;;;;;;;7.53;1.67;;;18.60;49.70;;;;;;4847312;29;20065;-95
2023/06/12 08:24:16;;;;;;;8.27;1.70;;;18.70;48.60;;;;;;4847872;29;20424;-95
2023/06/12 08:26:45;;;;;;;4.90;1.50;;;18.80;49.60;;;;;;4863852;29;20060;-96
2023/06/12 08:29:13;;;;;;;9.60;1.60;;;19.00;48.60;;;;;;4848148;29;20511;-94
2023/06/12 08:31:41;;;;;;;5.78;1.60;;;18.90;47.80;;;;;;4847985;29;20049;-93
2023/06/12 08:34:09;;;;;;;7.25;1.65;;;18.80;48.70;;;;;;4848109;29;20057;-94
2023/06/12 08:36:37;;;;;;;6.77;1.40;;;18.80;49.70;;;;;;4862619;29;20046;-94
2023/06/12 08:39:06;;;;;;;8.65;1.90;;;18.90;49.20;;;;;;4864244;29;20113;-93
2023/06/12 08:41:40;;;;;;;5.55;1.60;;;18.80;49.40;;;;;;4848646;29;20405;-94
2023/06/12 08:44:09;;;;;;;7.90;1.98;;;18.90;50.60;;;;;;4864793;29;20415;-94
2023/06/12 08:46:42;;;;;;;5.38;1.60;;;19.20;48.40;;;;;;4850002;29;20049;-94
2023/06/12 08:49:12;;;;;;;4.93;1.67;;;19.30;47.90;;;;;;4864548;29;20061;-94
2023/06/12 08:51:42;;;;;;;4.80;1.80;;;19.40;49.30;;;;;;4862273;29;20522;-91
2023/06/12 08:54:10;;;;;;;3.97;1.30;;;19.70;49.70;;;;;;4845514;29;20048;-92
2023/06/12 08:56:41;;;;;;;5.72;1.73;;;19.80;48.60;;;;;;4834168;29;20148;-90
2023/06/12 08:59:09;;;;;;;9.60;1.48;;;19.60;46.40;;;;;;4832867;29;20060;-91
2023/06/12 09:01:42;;;;;;;7.33;1.53;;;19.60;46.30;;;;;;4854428;29;21057;-91
2023/06/12 09:04:19;;;;;;;7.03;1.38;;;19.80;46.60;;;;;;4858527;29;20053;-91
2023/06/12 09:06:48;;;;;;;6.35;1.52;;;19.90;48.40;;;;;;4853642;29;20041;-91
2023/06/12 09:09:15;;;;;;;4.97;1.50;;;20.00;47.10;;;;;;4841668;29;20132;-91
2023/06/12 09:11:43;;;;;;;6.13;1.30;;;19.80;45.90;;;;;;4843242;29;20045;-91
2023/06/12 09:14:10;;;;;;;5.73;1.80;;;19.60;46.30;;;;;;4841022;29;20046;-91
2023/06/12 09:16:37;;;;;;;7.22;1.33;;;19.50;46.10;;;;;;4842616;29;20092;-91
2023/06/12 09:19:04;;;;;;;4.47;1.35;;;19.40;47.70;;;;;;4858684;29;20041;-91
2023/06/12 09:21:31;;;;;;;6.75;1.67;;;19.60;47.20;;;;;;4845687;29;20049;-91
2023/06/12 09:23:58;;;;;;;5.22;1.40;;;19.80;47.00;;;;;;4844575;29;20049;-91
2023/06/12 09:26:25;;;;;;;5.70;1.70;;;19.60;47.70;;;;;;4844679;29;20504;-91
2023/06/12 09:28:53;;;;;;;4.20;1.13;;;19.80;46.60;;;;;;4844338;29;20056;-91
2023/06/12 09:31:21;;;;;;;6.38;1.40;;;20.00;46.40;;;;;;4859718;29;20449;-92
2023/06/12 09:33:52;;;;;;;6.30;1.30;;;20.30;48.40;;;;;;4839321;29;20591;-91
2023/06/12 09:36:20;;;;;;;8.93;1.38;;;20.50;45.00;;;;;;4858282;29;20054;-91
2023/06/12 09:39:17;;;;;;;4.57;1.20;;;20.50;45.30;;;;;;4859809;29;20433;-91
2023/06/12 09:41:49;;;;;;;6.97;1.08;;;20.20;44.50;;;;;;4856760;29;20054;-91
2023/06/12 09:44:21;;;;;;;9.73;1.70;;;20.00;44.90;;;;;;4858055;29;20053;-91
2023/06/12 09:46:49;;;;;;;5.72;1.35;;;20.00;46.60;;;;;;4845419;29;20535;-91
2023/06/12 09:49:23;;;;;;;5.18;1.70;;;20.10;46.30;;;;;;4841776;29;20052;-91
2023/06/12 09:52:08;;;;;;;8.47;1.63;;;20.10;45.60;;;;;;4844920;29;20025;-91
2023/06/12 09:54:36;;;;;;;5.40;1.60;;;20.20;45.60;;;;;;4840413;29;20045;-91
2023/06/12 09:57:06;;;;;;;6.45;1.30;;;20.30;43.30;;;;;;4857141;29;20046;-92
2023/06/12 09:59:34;;;;;;;8.48;1.50;;;20.10;43.30;;;;;;4835373;29;20050;-91
2023/06/12 10:02:15;;;;;;;7.63;1.65;;;20.30;45.20;;;;;;4857822;29;20079;-92
2023/06/12 10:04:47;;;;;;;9.60;1.43;;;20.10;44.30;;;;;;4859819;29;20064;-92
2023/06/12 10:07:38;;;;;;;5.45;1.60;;;20.10;43.50;;;;;;4843944;29;20053;-91
2023/06/12 10:10:07;;;;;;;3.97;1.45;;;20.10;45.00;;;;;;4856179;29;20049;-91
2023/06/12 10:12:35;;;;;;;4.53;1.42;;;20.10;43.30;;;;;;4855572;29;20141;-92
2023/06/12 10:15:03;;;;;;;5.15;1.70;;;20.20;43.90;;;;;;4855096;29;20074;-91
2023/06/12 10:17:31;;;;;;;7.33;1.63;;;20.20;44.20;;;;;;4843449;29;20171;-91
2023/06/12 10:20:01;;;;;;;3.85;1.30;;;20.00;42.70;;;;;;4857778;29;20049;-92
2023/06/12 10:22:30;;;;;;;3.78;1.00;;;20.00;44.60;;;;;;4860191;29;20045;-91
2023/06/12 10:24:58;;;;;;;5.35;1.58;;;19.90;44.20;;;;;;4847208;29;20052;-91
2023/06/12 10:27:26;;;;;;;9.88;1.48;;;19.80;43.00;;;;;;4858973;29;20076;-91
2023/06/12 10:29:58;;;;;;;5.23;1.60;;;19.80;42.90;;;;;;4858676;29;20060;-91
2023/06/12 10:32:31;;;;;;;6.88;1.52;;;19.80;41.90;;;;;;4844648;29;20118;-91
2023/06/12 10:35:01;;;;;;;4.53;1.60;;;20.00;44.10;;;;;;4857720;29;20060;-92
2023/06/12 10:37:33;;;;;;;7.30;1.83;;;20.20;43.60;;;;;;4858164;29;20042;-91
2023/06/12 10:40:12;;;;;;;5.05;1.80;;;20.20;42.40;;;;;;4842267;29;20053;-91
2023/06/12 10:42:53;;;;;;;9.23;1.50;;;20.40;45.30;;;;;;4841048;29;20085;-91
2023/06/12 10:45:28;;;;;;;5.70;1.45;;;20.60;42.60;;;;;;4846986;29;20081;-91
2023/06/12 10:48:05;;;;;;;6.13;1.33;;;20.50;43.60;;;;;;4860448;29;20098;-91
2023/06/12 10:50:36;;;;;;;7.35;1.60;;;20.20;42.70;;;;;;4846368;29;20504;-91
2023/06/12 10:53:08;;;;;;;6.40;1.40;;;20.10;45.20;;;;;;4860431;29;20053;-91
2023/06/12 10:55:36;;;;;;;6.07;1.57;;;20.10;41.20;;;;;;4862756;29;20049;-91
2023/06/12 10:58:25;;;;;;;5.95;1.42;;;20.10;42.60;;;;;;4841864;29;20065;-91
2023/06/12 11:00:53;;;;;;;10.50;1.85;;;20.50;43.50;;;;;;4855842;29;20045;-91
2023/06/12 11:03:29;;;;;;;4.53;1.60;;;20.40;43.30;;;;;;4860306;29;20045;-91
2023/06/12 11:06:08;;;;;;;5.22;1.42;;;20.60;42.20;;;;;;4847370;29;20049;-91
2023/06/12 11:08:36;;;;;;;5.63;1.40;;;20.60;42.30;;;;;;4846777;29;20530;-92
2023/06/12 11:11:11;;;;;;;7.68;1.67;;;20.60;41.60;;;;;;4846855;29;20057;-91
2023/06/12 11:13:43;;;;;;;5.22;1.75;;;20.70;42.80;;;;;;4847083;29;20064;-91
2023/06/12 11:16:19;;;;;;;7.65;1.30;;;21.00;42.10;;;;;;4861910;29;20056;-91
2023/06/12 11:18:46;;;;;;;4.82;1.55;;;21.10;40.80;;;;;;4845675;29;20038;-91
2023/06/12 11:21:13;;;;;;;7.50;1.90;;;20.80;43.10;;;;;;4844729;29;20560;-91
2023/06/12 11:23:40;;;;;;;4.50;1.42;;;20.60;42.00;;;;;;4862308;29;20380;-92
2023/06/12 11:26:08;;;;;;;7.75;1.45;;;20.40;42.10;;;;;;4846464;29;20053;-92
2023/06/12 11:28:35;;;;;;;7.35;1.80;;;20.40;41.50;;;;;;4861823;29;20049;-92
2023/06/12 11:31:03;;;;;;;6.30;1.40;;;20.40;40.40;;;;;;4845891;29;20057;-92
2023/06/12 11:33:33;;;;;;;9.20;1.70;;;20.40;40.60;;;;;;4845041;29;20580;-92
2023/06/12 11:36:00;;;;;;;5.63;1.63;;;20.60;42.60;;;;;;4845492;29;20042;-92
2023/06/12 11:38:28;;;;;;;6.22;1.70;;;20.60;41.30;;;;;;4845354;29;20057;-91
2023/06/12 11:40:58;;;;;;;6.93;1.40;;;20.60;41.70;;;;;;4846747;29;20078;-92
2023/06/12 11:43:26;;;;;;;5.47;1.73;;;20.60;41.50;;;;;;4844935;29;20049;-91
2023/06/12 11:46:02;;;;;;;5.83;2.03;;;20.60;41.30;;;;;;4847219;29;20057;-91
2023/06/12 11:48:31;;;;;;;9.05;1.90;;;20.70;39.80;;;;;;4842679;29;20053;-92
2023/06/12 11:51:02;;;;;;;5.75;1.70;;;20.80;39.70;;;;;;4847169;29;20504;-91
2023/06/12 11:53:33;;;;;;;10.20;1.95;;;20.90;41.50;;;;;;4844190;29;20054;-92
2023/06/12 11:56:06;;;;;;;5.13;1.48;;;21.20;41.20;;;;;;4861650;29;20057;-92
2023/06/12 11:58:41;;;;;;;4.40;1.27;;;21.40;41.20;;;;;;4861374;29;20037;-92
2023/06/12 12:01:14;;;;;;;9.32;1.52;;;21.50;38.80;;;;;;4861374;29;20072;-92
2023/06/12 12:03:44;;;;;;;8.15;1.65;;;21.50;40.40;;;;;;4861235;29;20049;-92
2023/06/12 12:06:13;;;;;;;4.22;1.35;;;21.30;40.80;;;;;;4860728;29;20047;-91
2023/06/12 12:08:40;;;;;;;6.35;1.65;;;21.30;41.00;;;;;;4844355;29;20107;-91
2023/06/12 12:11:19;;;;;;;10.93;1.73;;;21.30;40.20;;;;;;4845714;29;20076;-91
2023/06/12 12:14:00;;;;;;;8.93;1.60;;;21.30;42.00;;;;;;4844672;29;20128;-92
2023/06/12 12:16:28;;;;;;;6.28;1.55;;;21.20;40.70;;;;;;4843583;29;20080;-92
2023/06/12 12:18:56;;;;;;;5.82;1.75;;;21.50;41.40;;;;;;4859962;29;20404;-92
2023/06/12 12:21:24;;;;;;;6.07;1.95;;;21.40;38.60;;;;;;4845211;29;20476;-92
2023/06/12 12:23:53;;;;;;;3.87;1.30;;;21.30;41.00;;;;;;4860890;29;20488;-91
2023/06/12 12:26:20;;;;;;;6.20;1.40;;;21.10;38.70;;;;;;4845313;29;20050;-91
2023/06/12 12:28:47;;;;;;;5.60;1.42;;;20.80;39.00;;;;;;4841573;29;20101;-92
2023/06/12 12:31:14;;;;;;;6.57;1.50;;;20.70;41.10;;;;;;4845176;29;20053;-92
2023/06/12 12:33:41;;;;;;;8.07;1.52;;;21.10;40.00;;;;;;4844464;29;20050;-92
2023/06/12 12:36:08;;;;;;;4.60;1.60;;;21.20;39.50;;;;;;4859089;29;20125;-91
2023/06/12 12:38:36;;;;;;;6.75;1.50;;;21.30;39.90;;;;;;4861222;29;20045;-91
2023/06/12 12:41:06;;;;;;;5.32;1.55;;;21.10;39.80;;;;;;4859959;29;20049;-91
2023/06/12 12:43:33;;;;;;;7.65;1.92;;;21.00;39.00;;;;;;4844167;29;20496;-91
2023/06/12 12:46:00;;;;;;;7.57;1.70;;;21.10;39.60;;;;;;4845498;29;20630;-91
2023/06/12 12:48:28;;;;;;;4.70;1.63;;;21.10;42.30;;;;;;4842824;29;20053;-91
2023/06/12 12:50:55;;;;;;;4.47;1.50;;;21.30;41.70;;;;;;4845019;29;20053;-91
2023/06/12 12:53:35;;;;;;;4.60;1.20;;;21.40;38.10;;;;;;4844766;29;20041;-91
2023/06/12 12:56:03;;;;;;;5.25;1.60;;;21.20;40.10;;;;;;4844766;29;20102;-91
2023/06/12 12:58:30;;;;;;;5.18;1.45;;;21.30;40.60;;;;;;4857754;29;20042;-91
2023/06/12 13:00:59;;;;;;;5.47;1.53;;;21.20;39.90;;;;;;4845464;29;20044;-91
2023/06/12 13:03:34;;;;;;;5.68;1.60;;;21.10;40.20;;;;;;4846091;29;20049;-94
2023/06/12 13:06:04;;;;;;;4.47;1.73;;;21.10;40.60;;;;;;4846621;29;20461;-93
2023/06/12 13:08:31;;;;;;;6.75;2.03;;;21.10;41.60;;;;;;4845716;29;20060;-93
2023/06/12 13:10:59;;;;;;;4.28;1.60;;;21.20;38.60;;;;;;4846401;29;20157;-94
2023/06/12 13:13:26;;;;;;;5.57;1.57;;;21.10;38.50;;;;;;4845994;29;20056;-93
2023/06/12 13:15:53;;;;;;;7.95;1.67;;;21.10;38.80;;;;;;4836226;29;20128;-94